Time;durP1;ratioP1;P1;durP2;ratioP2;P2;SDS_P1;SDS_P2;PMS_P1;PMS_P2;Temp;Humidity;BMP_temperature;BMP_pressure;BME280_temperature;BME280_humidity;BME280_pressure;Samples;Min_cycle;Max_cycle;Signal;HPM_P1;HPM_P2
2023/03/09 00:02:22;;;;;;;3.75;2.67;;;1.20;65.50;;;;;;5052972;28;20087;-82
2023/03/09 00:04:47;;;;;;;0.70;0.70;;;1.20;99.90;;;;;;5053878;28;20438;-83
2023/03/09 00:07:13;;;;;;;2.05;1.38;;;1.20;1.00;;;;;;5055687;28;20049;-82
2023/03/09 00:09:39;;;;;;;1.83;1.60;;;1.20;1.00;;;;;;5054958;28;20130;-82
2023/03/09 00:12:04;;;;;;;4.40;2.05;;;1.20;1.00;;;;;;5056336;28;20427;-82
2023/03/09 00:14:30;;;;;;;0.38;0.38;;;1.20;99.90;;;;;;5056055;28;20045;-80
2023/03/09 00:16:56;;;;;;;0.95;0.85;;;1.20;66.30;;;;;;5055616;28;20045;-82
2023/03/09 00:19:26;;;;;;;0.15;0.15;;;1.10;99.90;;;;;;5060230;28;20049;-80
2023/03/09 00:21:55;;;;;;;0.50;0.50;;;1.10;99.90;;;;;;5068703;28;20067;-80
2023/03/09 00:24:28;;;;;;;0.38;0.38;;;1.10;99.90;;;;;;5066251;28;20045;-80
2023/03/09 00:26:59;;;;;;;0.40;0.40;;;1.10;99.90;;;;;;5069183;28;20075;-80
2023/03/09 00:29:26;;;;;;;1.98;1.38;;;1.10;1.00;;;;;;5060277;28;20482;-83
2023/03/09 00:31:52;;;;;;;0.10;0.10;;;1.10;1.00;;;;;;5055546;28;20040;-82
2023/03/09 00:34:19;;;;;;;0.88;0.88;;;1.10;1.00;;;;;;5055967;28;20055;-83
2023/03/09 00:36:45;;;;;;;0.55;0.55;;;1.10;99.90;;;;;;5057118;28;20116;-83
2023/03/09 00:39:12;;;;;;;0.10;0.10;;;1.10;99.90;;;;;;5053361;28;20130;-82
2023/03/09 00:41:38;;;;;;;1.27;0.98;;;1.10;1.00;;;;;;5051493;28;20049;-82
2023/03/09 00:44:05;;;;;;;0.08;0.08;;;1.10;99.90;;;;;;5053823;28;20128;-83
2023/03/09 00:46:32;;;;;;;0.60;0.60;;;1.10;99.90;;;;;;5054853;28;20061;-82
2023/03/09 00:48:58;;;;;;;0.90;0.85;;;1.10;1.00;;;;;;5055850;28;20045;-82
2023/03/09 00:51:25;;;;;;;0.08;0.08;;;1.10;99.90;;;;;;5056180;28;20391;-82
2023/03/09 00:53:50;;;;;;;0.10;0.10;;;1.10;99.90;;;;;;5055225;28;20127;-83
2023/03/09 00:56:19;;;;;;;0.15;0.15;;;1.00;1.00;;;;;;5054475;28;20451;-83
2023/03/09 00:58:45;;;;;;;1.55;0.35;;;1.00;1.00;;;;;;5055043;28;20075;-82
2023/03/09 01:01:14;;;;;;;1.40;1.30;;;1.00;99.90;;;;;;5053329;28;20041;-82
2023/03/09 01:03:40;;;;;;;0.10;0.10;;;1.00;99.90;;;;;;5054974;28;20059;-82
2023/03/09 01:06:07;;;;;;;1.35;0.43;;;1.00;1.00;;;;;;5054903;28;20041;-82
2023/03/09 01:08:33;;;;;;;0.00;0.00;;;1.00;99.90;;;;;;5052946;28;20073;-83
2023/03/09 01:11:00;;;;;;;0.00;0.00;;;1.00;41.30;;;;;;5055281;28;20048;-82
2023/03/09 01:13:26;;;;;;;0.25;0.25;;;0.90;99.90;;;;;;5054564;28;20044;-82
2023/03/09 01:15:52;;;;;;;0.20;0.20;;;0.90;1.00;;;;;;5053350;28;20053;-82
2023/03/09 01:18:17;;;;;;;2.10;1.55;;;0.80;99.90;;;;;;5053841;28;20107;-83
2023/03/09 01:20:43;;;;;;;0.05;0.05;;;0.80;1.00;;;;;;5054462;28;20052;-83
2023/03/09 01:23:08;;;;;;;0.55;0.55;;;0.70;1.00;;;;;;5054339;28;20041;-82
2023/03/09 01:25:35;;;;;;;0.10;0.10;;;0.70;1.00;;;;;;5055388;28;20044;-80
2023/03/09 01:28:00;;;;;;;1.00;0.85;;;0.60;90.50;;;;;;5052942;28;20032;-80
2023/03/09 01:30:26;;;;;;;0.32;0.32;;;0.60;1.00;;;;;;5053251;28;20056;-80
2023/03/09 01:32:53;;;;;;;0.28;0.28;;;0.50;1.00;;;;;;5053970;28;20959;-80
2023/03/09 01:35:19;;;;;;;0.17;0.17;;;0.50;99.90;;;;;;5053749;28;20052;-83
2023/03/09 01:37:45;;;;;;;0.20;0.20;;;0.50;99.90;;;;;;5054094;28;20049;-82
2023/03/09 01:40:16;;;;;;;0.45;0.43;;;0.50;99.90;;;;;;5054135;28;20110;-82
2023/03/09 01:42:42;;;;;;;0.52;0.52;;;0.40;99.90;;;;;;5053629;28;20491;-82
2023/03/09 01:45:29;;;;;;;0.15;0.15;;;0.40;1.00;;;;;;5054272;28;20057;-82
2023/03/09 01:47:59;;;;;;;0.65;0.65;;;0.40;99.90;;;;;;5052757;28;20589;-83
2023/03/09 01:50:34;;;;;;;0.10;0.10;;;0.30;1.00;;;;;;5053567;28;20045;-80
2023/03/09 01:53:07;;;;;;;0.47;0.47;;;0.30;1.00;;;;;;5053009;28;20041;-81
2023/03/09 01:55:39;;;;;;;0.25;0.25;;;0.30;96.40;;;;;;5053314;28;20057;-80
2023/03/09 01:58:09;;;;;;;1.60;0.80;;;0.30;99.90;;;;;;5052867;28;20081;-81
2023/03/09 02:00:39;;;;;;;0.20;0.20;;;0.20;99.90;;;;;;5033169;28;20045;-80
2023/03/09 02:03:10;;;;;;;0.80;0.57;;;0.20;99.90;;;;;;5034081;28;20049;-81
2023/03/09 02:05:53;;;;;;;2.53;2.05;;;0.20;99.90;;;;;;5033589;28;20053;-80
2023/03/09 02:08:21;;;;;;;0.60;0.60;;;0.20;68.30;;;;;;5049029;28;20052;-80
2023/03/09 02:10:56;;;;;;;0.08;0.08;;;0.20;1.00;;;;;;5052897;28;20048;-81
2023/03/09 02:13:28;;;;;;;0.10;0.10;;;0.20;1.00;;;;;;5053672;28;20135;-80
2023/03/09 02:15:54;;;;;;;0.13;0.13;;;0.20;62.70;;;;;;5053626;28;20159;-83
2023/03/09 02:18:20;;;;;;;0.73;0.35;;;0.10;99.90;;;;;;5053760;28;20044;-82
2023/03/09 02:21:04;;;;;;;0.20;0.20;;;0.10;99.90;;;;;;5053833;28;20039;-82
2023/03/09 02:23:54;;;;;;;0.10;0.10;;;0.00;99.90;;;;;;5054002;28;20053;-83
2023/03/09 02:26:46;;;;;;;0.13;0.13;;;0.00;99.90;;;;;;5053635;28;20413;-82
2023/03/09 02:29:13;;;;;;;0.10;0.10;;;-0.10;99.90;;;;;;5032618;28;20041;-82
2023/03/09 02:31:39;;;;;;;0.10;0.10;;;-0.10;99.90;;;;;;5032186;28;20106;-82
2023/03/09 02:34:05;;;;;;;0.28;0.28;;;-0.20;99.90;;;;;;5032057;28;20049;-82
2023/03/09 02:36:31;;;;;;;0.10;0.10;;;-0.10;99.90;;;;;;5033487;28;20408;-83
2023/03/09 02:39:03;;;;;;;0.98;0.95;;;-0.20;99.90;;;;;;5052932;28;20373;-83
2023/03/09 02:41:30;;;;;;;1.75;1.65;;;-0.20;99.90;;;;;;5052017;28;20056;-83
2023/03/09 02:43:57;;;;;;;0.55;0.55;;;-0.20;99.90;;;;;;5053030;28;20092;-82
2023/03/09 02:46:23;;;;;;;0.40;0.40;;;-0.20;99.90;;;;;;5052008;28;20146;-80
2023/03/09 02:48:49;;;;;;;0.20;0.20;;;-0.10;99.90;;;;;;5052062;28;20595;-82
2023/03/09 02:51:14;;;;;;;0.30;0.30;;;-0.10;99.90;;;;;;5051137;28;20187;-81
2023/03/09 02:53:40;;;;;;;0.20;0.20;;;0.00;99.90;;;;;;5050644;28;20482;-81
2023/03/09 02:56:06;;;;;;;0.10;0.10;;;0.00;99.90;;;;;;5052789;28;20092;-83
2023/03/09 02:58:32;;;;;;;0.22;0.22;;;0.00;99.90;;;;;;5052773;28;20122;-81
2023/03/09 03:00:58;;;;;;;0.40;0.40;;;0.00;99.90;;;;;;5050446;28;20442;-82
2023/03/09 03:03:24;;;;;;;0.10;0.10;;;0.10;99.90;;;;;;5052477;28;20107;-81
2023/03/09 03:05:50;;;;;;;0.10;0.10;;;0.10;99.90;;;;;;5051261;28;20067;-81
2023/03/09 03:08:16;;;;;;;0.68;0.68;;;0.10;99.90;;;;;;5051685;28;20045;-81
2023/03/09 03:10:42;;;;;;;1.85;0.98;;;0.10;99.90;;;;;;5053275;28;20041;-82
2023/03/09 03:13:08;;;;;;;0.70;0.70;;;0.10;99.90;;;;;;5048425;28;20103;-81
2023/03/09 03:15:34;;;;;;;0.52;0.52;;;0.20;99.90;;;;;;5053668;28;20447;-81
2023/03/09 03:17:59;;;;;;;0.17;0.17;;;0.10;99.90;;;;;;5053337;28;20105;-81
2023/03/09 03:20:26;;;;;;;0.10;0.10;;;0.20;99.90;;;;;;5052545;28;20052;-82
2023/03/09 03:22:51;;;;;;;0.57;0.57;;;0.20;99.90;;;;;;5053159;28;20422;-80
2023/03/09 03:25:18;;;;;;;1.10;1.10;;;0.20;99.90;;;;;;5053516;28;20106;-82
2023/03/09 03:27:43;;;;;;;0.10;0.10;;;0.30;99.90;;;;;;5053039;28;20063;-81
2023/03/09 03:30:11;;;;;;;1.58;1.27;;;0.20;99.90;;;;;;5053835;28;20072;-82
2023/03/09 03:32:37;;;;;;;1.55;1.38;;;0.30;99.90;;;;;;5053323;28;20041;-81
2023/03/09 03:35:03;;;;;;;0.73;0.73;;;0.30;99.90;;;;;;5052747;28;20041;-82
2023/03/09 03:37:29;;;;;;;0.77;0.77;;;0.20;99.90;;;;;;5050934;28;20057;-82
2023/03/09 03:39:55;;;;;;;0.80;0.77;;;0.20;99.90;;;;;;5054038;28;20053;-82
2023/03/09 03:42:21;;;;;;;1.55;0.63;;;0.20;99.90;;;;;;5056731;28;20037;-82
2023/03/09 03:44:46;;;;;;;0.60;0.60;;;0.20;99.90;;;;;;5056456;28;20148;-81
2023/03/09 03:47:12;;;;;;;0.90;0.90;;;0.20;99.90;;;;;;5057270;28;20111;-81
2023/03/09 03:49:38;;;;;;;2.63;2.33;;;0.20;99.90;;;;;;5057007;28;20096;-81
2023/03/09 03:52:04;;;;;;;4.60;1.25;;;0.20;99.90;;;;;;5056614;28;20049;-81
2023/03/09 03:54:29;;;;;;;0.35;0.35;;;0.30;99.90;;;;;;5056959;28;20048;-82
2023/03/09 03:56:55;;;;;;;1.02;0.90;;;0.30;99.90;;;;;;5055520;28;20479;-81
2023/03/09 03:59:21;;;;;;;0.60;0.60;;;0.30;99.90;;;;;;5056203;28;20060;-81
2023/03/09 04:01:46;;;;;;;1.17;1.08;;;0.40;99.90;;;;;;5056139;28;20061;-81
2023/03/09 04:04:12;;;;;;;0.90;0.90;;;0.40;99.90;;;;;;5055209;28;20093;-81
2023/03/09 04:06:38;;;;;;;0.82;0.82;;;0.40;99.90;;;;;;5055698;28;20075;-82
2023/03/09 04:09:04;;;;;;;0.10;0.10;;;0.40;99.90;;;;;;5033917;28;20047;-81
2023/03/09 04:11:31;;;;;;;0.43;0.43;;;0.40;99.90;;;;;;5031241;28;20446;-81
2023/03/09 04:13:56;;;;;;;0.10;0.10;;;0.50;99.90;;;;;;5032681;28;20045;-81
2023/03/09 04:16:22;;;;;;;2.97;2.30;;;0.50;99.90;;;;;;5032183;28;20055;-82
2023/03/09 04:18:48;;;;;;;1.85;1.73;;;0.50;99.90;;;;;;5051285;28;20037;-81
2023/03/09 04:21:14;;;;;;;1.23;1.17;;;0.50;99.90;;;;;;5052280;28;20532;-81
2023/03/09 04:23:39;;;;;;;5.05;0.98;;;0.50;99.90;;;;;;5053181;28;20044;-81
2023/03/09 04:26:06;;;;;;;0.73;0.73;;;0.50;99.90;;;;;;5052756;28;20125;-82
2023/03/09 04:28:32;;;;;;;2.47;2.08;;;0.40;99.90;;;;;;5052527;28;20052;-81
2023/03/09 04:30:57;;;;;;;0.28;0.28;;;0.50;99.90;;;;;;5052883;28;20049;-81
2023/03/09 04:33:24;;;;;;;0.50;0.50;;;0.40;99.90;;;;;;5051118;28;20738;-82
2023/03/09 04:35:49;;;;;;;0.52;0.52;;;0.40;99.90;;;;;;5052448;28;20040;-81
2023/03/09 04:38:15;;;;;;;0.77;0.75;;;0.40;99.90;;;;;;5052410;28;20118;-81
2023/03/09 04:40:41;;;;;;;1.65;0.80;;;0.40;99.90;;;;;;5052403;28;20642;-82
2023/03/09 04:43:07;;;;;;;0.28;0.28;;;0.40;99.90;;;;;;5052787;28;20436;-81
2023/03/09 04:45:32;;;;;;;2.58;2.33;;;0.40;99.90;;;;;;5052268;28;20103;-81
2023/03/09 04:47:59;;;;;;;1.23;1.13;;;0.40;99.90;;;;;;5052173;28;20041;-81
2023/03/09 04:50:25;;;;;;;0.28;0.28;;;0.40;99.90;;;;;;5051867;28;20538;-81
2023/03/09 04:52:51;;;;;;;0.95;0.95;;;0.40;99.90;;;;;;5050558;28;20388;-81
2023/03/09 04:55:17;;;;;;;2.22;2.03;;;0.40;99.90;;;;;;5052666;28;20075;-81
2023/03/09 04:57:43;;;;;;;0.45;0.45;;;0.30;99.90;;;;;;5051970;28;20391;-81
2023/03/09 05:00:10;;;;;;;1.45;1.33;;;0.30;99.90;;;;;;5052921;28;20044;-81
2023/03/09 05:02:37;;;;;;;0.20;0.20;;;0.30;99.90;;;;;;5052321;28;20124;-81
2023/03/09 05:05:04;;;;;;;2.42;2.22;;;0.20;99.90;;;;;;5052972;28;20442;-81
2023/03/09 05:07:29;;;;;;;6.93;1.52;;;0.20;99.90;;;;;;5051384;28;20047;-81
2023/03/09 05:09:55;;;;;;;0.10;0.10;;;0.20;99.90;;;;;;5051894;28;20084;-81
2023/03/09 05:12:21;;;;;;;0.47;0.47;;;0.20;99.90;;;;;;5051672;28;20060;-81
2023/03/09 05:14:46;;;;;;;0.15;0.15;;;0.20;99.90;;;;;;5051426;28;20048;-81
2023/03/09 05:17:12;;;;;;;0.45;0.45;;;0.30;99.90;;;;;;5050635;28;20049;-81
2023/03/09 05:19:38;;;;;;;1.23;1.20;;;0.20;99.90;;;;;;5050883;28;20049;-81
2023/03/09 05:22:04;;;;;;;0.30;0.30;;;0.20;99.90;;;;;;5051754;28;20513;-81
2023/03/09 05:24:30;;;;;;;0.40;0.40;;;0.20;99.90;;;;;;5051988;28;20045;-81
2023/03/09 05:26:56;;;;;;;1.20;1.10;;;0.30;99.90;;;;;;5051430;28;20101;-81
2023/03/09 05:29:21;;;;;;;0.00;0.00;;;0.30;99.90;;;;;;5050889;28;20041;-82
2023/03/09 05:31:47;;;;;;;0.00;0.00;;;0.30;99.90;;;;;;5051832;28;20647;-81
2023/03/09 05:34:12;;;;;;;0.28;0.28;;;0.30;99.90;;;;;;5051056;28;20533;-81
2023/03/09 05:36:38;;;;;;;0.25;0.25;;;0.30;99.90;;;;;;5051625;28;20045;-81
2023/03/09 05:39:04;;;;;;;0.95;0.95;;;0.20;99.90;;;;;;5049826;28;20079;-82
2023/03/09 05:41:31;;;;;;;0.10;0.10;;;0.20;99.90;;;;;;5050862;28;20053;-81
2023/03/09 05:43:59;;;;;;;0.73;0.73;;;0.20;99.90;;;;;;5052015;28;20045;-81
2023/03/09 05:46:25;;;;;;;0.30;0.30;;;0.20;99.90;;;;;;5051597;28;20057;-81
2023/03/09 05:48:50;;;;;;;1.30;1.23;;;0.20;99.90;;;;;;5049734;28;20415;-81
2023/03/09 05:51:16;;;;;;;0.15;0.15;;;0.20;99.90;;;;;;5050285;28;20060;-81
2023/03/09 05:53:42;;;;;;;4.68;1.90;;;0.30;99.90;;;;;;5051561;28;20056;-81
2023/03/09 05:56:08;;;;;;;0.93;0.75;;;0.30;99.90;;;;;;5051757;28;20398;-81
2023/03/09 05:58:34;;;;;;;2.08;0.73;;;0.30;99.90;;;;;;5051551;28;20041;-81
2023/03/09 06:01:00;;;;;;;1.63;1.52;;;0.40;99.90;;;;;;5051458;28;20045;-81
2023/03/09 06:03:26;;;;;;;0.70;0.70;;;0.40;99.90;;;;;;5051003;28;20049;-81
2023/03/09 06:06:03;;;;;;;0.40;0.40;;;0.40;99.90;;;;;;5050466;28;20109;-81
2023/03/09 06:08:29;;;;;;;0.47;0.47;;;0.40;99.90;;;;;;5051535;28;20052;-81
2023/03/09 06:10:58;;;;;;;1.85;1.58;;;0.40;99.90;;;;;;5051862;28;20080;-81
2023/03/09 06:13:24;;;;;;;0.05;0.05;;;0.40;99.90;;;;;;5052640;28;20063;-81
2023/03/09 06:15:49;;;;;;;0.65;0.65;;;0.50;99.90;;;;;;5051124;28;20100;-81
2023/03/09 06:18:16;;;;;;;0.08;0.08;;;0.50;99.90;;;;;;5051935;28;20052;-81
2023/03/09 06:20:41;;;;;;;1.58;1.27;;;0.50;99.90;;;;;;5049363;28;20053;-82
2023/03/09 06:23:07;;;;;;;0.10;0.10;;;0.50;99.90;;;;;;5050722;28;20075;-80
2023/03/09 06:25:33;;;;;;;0.45;0.45;;;0.50;99.90;;;;;;5051606;28;20055;-81
2023/03/09 06:27:58;;;;;;;0.75;0.75;;;0.50;99.90;;;;;;5050819;28;20053;-81
2023/03/09 06:30:26;;;;;;;0.30;0.30;;;0.50;99.90;;;;;;5050317;28;20092;-81
2023/03/09 06:32:52;;;;;;;0.32;0.32;;;0.50;99.90;;;;;;5051408;28;20123;-81
2023/03/09 06:35:18;;;;;;;0.45;0.45;;;0.50;99.90;;;;;;5050910;28;20063;-81
2023/03/09 06:37:45;;;;;;;0.73;0.73;;;0.50;99.90;;;;;;5048852;28;20048;-81
2023/03/09 06:40:12;;;;;;;0.63;0.63;;;0.50;99.90;;;;;;5047714;28;20102;-81
2023/03/09 06:42:39;;;;;;;0.55;0.47;;;0.50;99.90;;;;;;5049153;28;20063;-81
2023/03/09 06:45:07;;;;;;;0.20;0.20;;;0.50;99.90;;;;;;5048265;28;20487;-81
2023/03/09 06:47:32;;;;;;;3.20;1.40;;;0.50;99.90;;;;;;5048604;28;20739;-81
2023/03/09 06:49:58;;;;;;;2.72;0.80;;;0.50;99.90;;;;;;5048425;28;20055;-81
2023/03/09 06:52:25;;;;;;;0.10;0.10;;;0.50;99.90;;;;;;5048090;28;20052;-81
2023/03/09 06:54:51;;;;;;;0.22;0.22;;;0.60;99.90;;;;;;5048958;28;20049;-81
2023/03/09 06:57:17;;;;;;;1.40;1.30;;;0.60;99.90;;;;;;5047876;28;20488;-81
2023/03/09 06:59:43;;;;;;;0.98;0.93;;;0.70;99.90;;;;;;5048378;28;20111;-81
2023/03/09 07:02:11;;;;;;;0.57;0.57;;;0.70;99.90;;;;;;5048952;28;20427;-81
2023/03/09 07:04:38;;;;;;;0.80;0.80;;;0.70;99.90;;;;;;5048109;28;20722;-81
2023/03/09 07:07:03;;;;;;;1.50;1.40;;;0.80;99.90;;;;;;5034236;28;20449;-81
2023/03/09 07:09:31;;;;;;;0.77;0.77;;;0.80;1.00;;;;;;5049086;28;20048;-82
2023/03/09 07:11:58;;;;;;;0.00;0.00;;;0.90;24.50;;;;;;5048794;28;20055;-81
2023/03/09 07:14:24;;;;;;;2.30;1.15;;;0.90;99.90;;;;;;5048637;28;20052;-81
2023/03/09 07:16:56;;;;;;;0.43;0.43;;;1.00;99.90;;;;;;5038669;28;20448;-81
2023/03/09 07:19:23;;;;;;;0.15;0.15;;;1.10;1.00;;;;;;5048963;28;20044;-81
2023/03/09 07:21:49;;;;;;;2.60;1.45;;;1.10;99.90;;;;;;5048731;28;20686;-82
2023/03/09 07:24:15;;;;;;;0.10;0.10;;;1.10;99.90;;;;;;5048315;28;21032;-82
2023/03/09 07:26:41;;;;;;;1.33;1.23;;;1.00;99.90;;;;;;5049590;28;20055;-81
2023/03/09 07:29:06;;;;;;;0.68;0.68;;;0.90;99.90;;;;;;5047517;28;20052;-82
2023/03/09 07:31:32;;;;;;;0.65;0.65;;;0.90;99.90;;;;;;5047288;28;20051;-82
2023/03/09 07:33:59;;;;;;;0.43;0.43;;;0.90;99.90;;;;;;5048832;28;20053;-82
2023/03/09 07:36:25;;;;;;;0.32;0.32;;;0.90;99.90;;;;;;5048431;28;20087;-82
2023/03/09 07:38:51;;;;;;;0.45;0.45;;;0.90;1.00;;;;;;5047106;28;20045;-82
2023/03/09 07:41:19;;;;;;;9.52;2.25;;;0.90;75.20;;;;;;5046697;28;20053;-82
2023/03/09 07:43:45;;;;;;;1.27;1.17;;;0.90;99.90;;;;;;5045364;28;20096;-81
2023/03/09 07:46:13;;;;;;;0.77;0.77;;;1.10;99.90;;;;;;5046862;28;20140;-82
2023/03/09 07:48:39;;;;;;;0.50;0.50;;;1.20;99.90;;;;;;5047619;28;20092;-82
2023/03/09 07:51:06;;;;;;;1.08;0.77;;;1.50;99.90;;;;;;5047599;28;20387;-81
2023/03/09 07:53:34;;;;;;;0.50;0.50;;;1.70;67.40;;;;;;5047617;28;20427;-82
2023/03/09 07:56:03;;;;;;;0.25;0.25;;;1.90;1.00;;;;;;5048039;28;20628;-82
2023/03/09 07:58:33;;;;;;;0.10;0.10;;;2.10;99.90;;;;;;5042476;28;20044;-82
2023/03/09 08:00:59;;;;;;;2.45;1.65;;;2.20;99.90;;;;;;5036578;28;20515;-82
2023/03/09 08:03:25;;;;;;;0.55;0.55;;;2.40;49.30;;;;;;5047567;28;20059;-82
2023/03/09 08:05:55;;;;;;;0.60;0.55;;;2.40;99.90;;;;;;5047860;28;20045;-82
2023/03/09 08:08:26;;;;;;;2.13;1.92;;;2.40;68.50;;;;;;5047090;28;20048;-82
2023/03/09 08:10:52;;;;;;;0.65;0.65;;;2.50;1.00;;;;;;5047523;28;20530;-82
2023/03/09 08:13:20;;;;;;;1.25;1.10;;;2.50;99.90;;;;;;5048122;28;20398;-82
2023/03/09 08:15:47;;;;;;;0.30;0.30;;;2.40;99.90;;;;;;5047743;28;20048;-81
2023/03/09 08:18:13;;;;;;;0.10;0.10;;;2.40;99.90;;;;;;5047089;28;20041;-82
2023/03/09 08:20:39;;;;;;;0.00;0.00;;;2.50;99.90;;;;;;5046846;28;20048;-81
2023/03/09 08:23:05;;;;;;;1.00;1.00;;;2.60;99.90;;;;;;5033560;28;20046;-81
2023/03/09 08:25:31;;;;;;;0.65;0.65;;;2.60;77.70;;;;;;5073133;28;20171;-81
2023/03/09 08:27:58;;;;;;;3.65;1.85;;;2.60;86.40;;;;;;5051108;28;20053;-81
2023/03/09 08:30:24;;;;;;;0.30;0.30;;;2.60;1.00;;;;;;5050866;28;20090;-82
2023/03/09 08:32:51;;;;;;;0.13;0.13;;;2.70;1.00;;;;;;5041668;28;20402;-82
2023/03/09 08:35:19;;;;;;;0.38;0.38;;;2.70;1.00;;;;;;5035791;28;20050;-82
2023/03/09 08:37:46;;;;;;;3.20;2.08;;;2.70;1.00;;;;;;5050528;28;20067;-82
2023/03/09 08:40:13;;;;;;;0.40;0.40;;;2.80;1.00;;;;;;5050792;28;20045;-82
2023/03/09 08:42:39;;;;;;;0.60;0.50;;;2.80;1.00;;;;;;5051924;28;20045;-82
2023/03/09 08:45:05;;;;;;;0.65;0.65;;;2.80;99.90;;;;;;5050626;28;20498;-82
2023/03/09 08:47:31;;;;;;;1.40;0.98;;;2.70;99.90;;;;;;5051602;28;20102;-82
2023/03/09 08:49:58;;;;;;;0.28;0.28;;;2.60;99.90;;;;;;5050925;28;20255;-82
2023/03/09 08:52:24;;;;;;;2.25;0.98;;;2.60;99.90;;;;;;5050949;28;20122;-83
2023/03/09 08:54:50;;;;;;;0.57;0.43;;;2.60;99.90;;;;;;5050121;28;20049;-82
2023/03/09 08:57:17;;;;;;;1.08;0.68;;;2.70;1.00;;;;;;5050527;28;20126;-82
2023/03/09 08:59:43;;;;;;;0.20;0.20;;;2.80;1.00;;;;;;5082926;28;20041;-82
2023/03/09 09:02:14;;;;;;;0.10;0.10;;;2.90;66.80;;;;;;5050627;28;20889;-82
2023/03/09 09:04:44;;;;;;;2.92;0.95;;;3.10;1.00;;;;;;5050424;28;20080;-82
2023/03/09 09:07:10;;;;;;;0.10;0.10;;;3.00;99.90;;;;;;5050483;28;20626;-82
2023/03/09 09:09:37;;;;;;;0.63;0.63;;;3.00;99.90;;;;;;5050980;28;20048;-82
2023/03/09 09:12:03;;;;;;;0.73;0.73;;;2.90;99.90;;;;;;5049772;28;20053;-82
2023/03/09 09:14:29;;;;;;;3.63;1.05;;;2.80;99.90;;;;;;5050177;28;20067;-82
2023/03/09 09:16:55;;;;;;;0.17;0.17;;;2.80;99.90;;;;;;5049863;28;20045;-82
2023/03/09 09:19:22;;;;;;;1.15;1.05;;;2.80;99.90;;;;;;5049716;28;20041;-82
2023/03/09 09:21:48;;;;;;;0.28;0.28;;;3.00;1.00;;;;;;5070809;28;20041;-82
2023/03/09 09:24:14;;;;;;;0.40;0.40;;;2.90;99.90;;;;;;5047006;28;20122;-82
2023/03/09 09:26:40;;;;;;;0.63;0.63;;;3.10;99.90;;;;;;5050440;28;20084;-82
2023/03/09 09:29:06;;;;;;;0.22;0.22;;;3.40;99.90;;;;;;5050008;28;20469;-82
2023/03/09 09:31:33;;;;;;;0.35;0.35;;;3.70;99.90;;;;;;5050159;28;20045;-82
2023/03/09 09:33:59;;;;;;;0.45;0.45;;;4.00;97.00;;;;;;5050522;28;20486;-82
2023/03/09 09:36:25;;;;;;;0.30;0.30;;;4.10;1.00;;;;;;5049628;28;20511;-82
2023/03/09 09:38:52;;;;;;;1.10;1.00;;;3.90;1.00;;;;;;5048368;28;20053;-82
2023/03/09 09:41:44;;;;;;;0.57;0.57;;;3.80;1.00;;;;;;5048248;28;20068;-82
2023/03/09 09:44:26;;;;;;;0.52;0.52;;;3.70;99.90;;;;;;5049249;28;20124;-81
2023/03/09 09:46:54;;;;;;;2.00;1.38;;;3.70;99.90;;;;;;5049957;28;20089;-82
2023/03/09 09:49:26;;;;;;;1.20;1.10;;;3.60;67.20;;;;;;5049171;28;20049;-82
2023/03/09 09:52:05;;;;;;;2.00;0.65;;;3.50;46.80;;;;;;5047768;28;20045;-82
2023/03/09 09:54:47;;;;;;;0.93;0.65;;;3.50;99.90;;;;;;5049533;28;20060;-82
2023/03/09 09:57:14;;;;;;;0.28;0.28;;;4.00;99.90;;;;;;5049377;28;20059;-82
2023/03/09 09:59:54;;;;;;;0.43;0.43;;;3.90;1.00;;;;;;5080120;28;20052;-83
2023/03/09 10:02:47;;;;;;;18.73;2.25;;;4.10;1.00;;;;;;5051380;28;20067;-82
2023/03/09 10:05:20;;;;;;;0.00;0.00;;;4.20;1.00;;;;;;5050245;28;20053;-82
2023/03/09 10:07:47;;;;;;;0.60;0.60;;;4.10;1.00;;;;;;5050781;28;20087;-82
2023/03/09 10:10:24;;;;;;;1.40;1.13;;;4.10;1.00;;;;;;5050759;28;20531;-82
2023/03/09 10:12:50;;;;;;;0.85;0.75;;;4.10;1.00;;;;;;5051653;28;20056;-82
2023/03/09 10:15:29;;;;;;;1.08;1.00;;;4.10;1.00;;;;;;5049792;28;20037;-82
2023/03/09 10:18:12;;;;;;;2.10;1.95;;;4.10;1.00;;;;;;5049919;28;20617;-82
2023/03/09 10:20:49;;;;;;;0.57;0.57;;;4.00;1.00;;;;;;5048627;28;20103;-82
2023/03/09 10:23:24;;;;;;;0.43;0.43;;;4.40;1.00;;;;;;5048977;28;20064;-81
2023/03/09 10:25:53;;;;;;;0.47;0.47;;;3.80;1.00;;;;;;5080623;28;20052;-82
2023/03/09 10:28:21;;;;;;;0.47;0.47;;;4.00;1.00;;;;;;5049570;28;20040;-82
2023/03/09 10:31:19;;;;;;;1.75;1.65;;;4.00;3.40;;;;;;5051029;28;20044;-82
2023/03/09 10:33:49;;;;;;;0.65;0.65;;;4.20;99.90;;;;;;5050430;28;20079;-82
2023/03/09 10:36:23;;;;;;;0.40;0.40;;;4.30;91.10;;;;;;5050167;28;20110;-82
2023/03/09 10:38:50;;;;;;;2.22;1.20;;;4.40;61.50;;;;;;5049872;28;20127;-82
2023/03/09 10:41:18;;;;;;;1.20;1.10;;;4.40;1.00;;;;;;5050632;28;20440;-82
2023/03/09 10:43:45;;;;;;;0.80;0.80;;;4.50;1.00;;;;;;5050150;28;20048;-82
2023/03/09 10:46:19;;;;;;;0.17;0.17;;;4.70;1.00;;;;;;5049860;28;20110;-82
2023/03/09 10:48:47;;;;;;;4.78;1.38;;;4.70;1.00;;;;;;5049868;28;20044;-81
2023/03/09 10:51:21;;;;;;;0.70;0.52;;;4.70;1.00;;;;;;5083001;28;20395;-82
2023/03/09 10:53:48;;;;;;;2.83;0.77;;;4.70;1.00;;;;;;5050576;28;20077;-81
2023/03/09 10:56:44;;;;;;;2.42;0.63;;;4.60;1.00;;;;;;5050691;28;20454;-82
2023/03/09 10:59:16;;;;;;;0.32;0.22;;;4.40;99.90;;;;;;5048674;28;20053;-82
2023/03/09 11:01:52;;;;;;;0.55;0.55;;;4.40;99.90;;;;;;5049575;28;20071;-81
2023/03/09 11:04:24;;;;;;;0.98;0.73;;;4.50;1.00;;;;;;5049688;28;20049;-82
2023/03/09 11:06:58;;;;;;;1.13;0.70;;;4.60;99.90;;;;;;5048556;28;20114;-83
2023/03/09 11:09:45;;;;;;;0.28;0.28;;;4.80;1.00;;;;;;5050403;28;20055;-81
2023/03/09 11:12:25;;;;;;;0.10;0.10;;;4.70;99.90;;;;;;5049062;28;20057;-82
2023/03/09 11:14:57;;;;;;;0.73;0.73;;;4.40;99.90;;;;;;5049807;28;20048;-81
2023/03/09 11:17:37;;;;;;;0.15;0.15;;;4.40;1.00;;;;;;5047826;28;20045;-82
2023/03/09 11:20:18;;;;;;;1.30;0.75;;;4.30;1.00;;;;;;5047437;28;20098;-82
2023/03/09 11:22:57;;;;;;;0.00;0.00;;;4.60;99.90;;;;;;5047670;28;20084;-82
2023/03/09 11:26:03;;;;;;;0.20;0.20;;;4.50;99.90;;;;;;5046861;28;20199;-82
2023/03/09 11:28:39;;;;;;;0.50;0.50;;;4.70;99.90;;;;;;5047277;28;20049;-82
2023/03/09 11:31:14;;;;;;;1.20;0.98;;;5.10;99.90;;;;;;5047719;28;20120;-82
2023/03/09 11:33:41;;;;;;;0.63;0.40;;;5.50;99.90;;;;;;5048351;28;20096;-82
2023/03/09 11:36:12;;;;;;;0.30;0.30;;;5.80;99.90;;;;;;5047819;28;20052;-82
2023/03/09 11:38:41;;;;;;;6.22;1.60;;;7.60;99.90;;;;;;5050258;28;20131;-82
2023/03/09 11:41:26;;;;;;;2.03;0.60;;;6.20;99.90;;;;;;5048799;28;20491;-82
2023/03/09 11:43:58;;;;;;;0.43;0.43;;;5.80;99.90;;;;;;5052213;28;20056;-81
2023/03/09 11:46:24;;;;;;;0.30;0.20;;;5.80;99.90;;;;;;5049471;28;20548;-82
2023/03/09 11:49:01;;;;;;;0.70;0.70;;;6.00;99.90;;;;;;5049945;28;20057;-81
2023/03/09 11:51:34;;;;;;;0.55;0.55;;;5.90;99.90;;;;;;5049882;28;20518;-82
2023/03/09 11:54:24;;;;;;;2.30;1.65;;;5.90;99.90;;;;;;5048949;28;20048;-82
2023/03/09 11:56:52;;;;;;;0.98;0.88;;;5.50;99.90;;;;;;5048679;28;20040;-83
2023/03/09 11:59:41;;;;;;;0.10;0.10;;;5.40;99.90;;;;;;5048527;28;20164;-82
2023/03/09 12:02:39;;;;;;;0.22;0.22;;;5.10;99.90;;;;;;5051850;28;20100;-82
2023/03/09 12:05:11;;;;;;;0.65;0.52;;;4.80;99.90;;;;;;5018618;28;20053;-82
2023/03/09 12:08:14;;;;;;;0.40;0.30;;;4.80;99.90;;;;;;5051617;28;20057;-82
2023/03/09 12:10:50;;;;;;;1.63;1.30;;;4.70;99.90;;;;;;5043255;28;20503;-82
2023/03/09 12:13:24;;;;;;;0.65;0.63;;;4.90;99.90;;;;;;5051519;28;20102;-81
2023/03/09 12:15:56;;;;;;;0.17;0.17;;;5.00;99.90;;;;;;5052203;28;20068;-82
2023/03/09 12:18:29;;;;;;;0.47;0.35;;;4.90;99.90;;;;;;5051002;28;20521;-81
2023/03/09 12:20:58;;;;;;;1.20;1.00;;;5.00;99.90;;;;;;5051476;28;20977;-81
2023/03/09 12:23:36;;;;;;;0.50;0.50;;;5.40;99.90;;;;;;5051324;28;20056;-82
2023/03/09 12:26:22;;;;;;;0.32;0.32;;;5.60;99.90;;;;;;5051843;28;20045;-82
2023/03/09 12:29:10;;;;;;;2.88;2.13;;;5.40;99.90;;;;;;5052250;28;20061;-82
2023/03/09 12:31:37;;;;;;;3.13;1.17;;;5.10;99.90;;;;;;5052842;28;20069;-82
2023/03/09 12:34:08;;;;;;;0.45;0.30;;;5.00;99.90;;;;;;5052940;28;20041;-82
2023/03/09 12:36:41;;;;;;;0.10;0.10;;;5.20;99.90;;;;;;5050077;28;20061;-82
2023/03/09 12:39:22;;;;;;;0.30;0.30;;;5.40;99.90;;;;;;5051643;28;20387;-82
2023/03/09 12:42:22;;;;;;;1.33;1.23;;;5.20;99.90;;;;;;5051442;28;20094;-82
2023/03/09 12:44:47;;;;;;;0.90;0.65;;;5.00;99.90;;;;;;5051729;28;20052;-82
2023/03/09 12:47:42;;;;;;;0.00;0.00;;;5.00;99.90;;;;;;5051982;28;20053;-82
2023/03/09 12:50:39;;;;;;;0.70;0.70;;;5.20;99.90;;;;;;5047401;28;20702;-82
2023/03/09 12:53:12;;;;;;;0.43;0.43;;;5.30;99.90;;;;;;5051760;28;20051;-82
2023/03/09 12:55:38;;;;;;;0.57;0.57;;;5.10;99.90;;;;;;5050315;28;20439;-82
2023/03/09 12:58:33;;;;;;;1.45;0.43;;;5.00;99.90;;;;;;5049501;28;20083;-82
2023/03/09 13:01:05;;;;;;;0.20;0.20;;;5.00;99.90;;;;;;5043931;28;20063;-82
2023/03/09 13:03:36;;;;;;;1.50;0.68;;;4.90;99.90;;;;;;5048976;28;20499;-82
2023/03/09 13:06:24;;;;;;;1.13;1.02;;;5.00;99.90;;;;;;5050765;28;20065;-82
2023/03/09 13:09:03;;;;;;;0.55;0.55;;;4.80;99.90;;;;;;5039129;28;20080;-82
2023/03/09 13:11:39;;;;;;;0.47;0.47;;;4.70;99.90;;;;;;5047179;28;20182;-82